createdAt,value
2018-08-18T00:02:02.683Z,19.00
2018-08-18T00:04:36.878Z,19.00
2018-08-18T00:07:05.432Z,19.00
2018-08-18T00:09:33.973Z,19.00
2018-08-18T00:12:05.537Z,19.00
2018-08-18T00:14:34.032Z,18.90
2018-08-18T00:17:02.584Z,18.90
2018-08-18T00:19:35.922Z,18.90
2018-08-18T00:22:04.536Z,18.90
2018-08-18T00:24:56.782Z,18.80
2018-08-18T00:27:25.694Z,18.80
2018-08-18T00:30:02.208Z,18.70
2018-08-18T00:32:30.783Z,18.70
2018-08-18T00:35:03.188Z,18.70
2018-08-18T00:37:31.671Z,18.70
2018-08-18T00:40:04.023Z,18.60
2018-08-18T00:42:32.525Z,18.70
2018-08-18T00:45:04.897Z,18.60
2018-08-18T00:47:33.394Z,18.60
2018-08-18T00:50:01.880Z,18.60
2018-08-18T00:52:33.531Z,18.60
2018-08-18T00:55:02.065Z,18.60
2018-08-18T00:57:38.081Z,18.60
2018-08-18T01:00:06.712Z,18.50
2018-08-18T01:02:38.916Z,18.50
2018-08-18T01:05:07.361Z,18.50
2018-08-18T01:07:35.869Z,18.50
2018-08-18T01:10:07.545Z,18.50
2018-08-18T01:12:36.185Z,18.40
2018-08-18T01:15:11.974Z,18.40
2018-08-18T01:17:40.451Z,18.40
2018-08-18T01:20:12.939Z,18.40
2018-08-18T01:22:44.497Z,18.40
2018-08-18T01:25:16.459Z,18.30
2018-08-18T01:27:51.135Z,18.40
2018-08-18T01:30:22.855Z,18.30
2018-08-18T01:32:51.358Z,18.30
2018-08-18T01:35:24.576Z,18.30
2018-08-18T01:37:53.052Z,18.30
2018-08-18T01:40:21.532Z,18.30
2018-08-18T01:42:54.079Z,18.30
2018-08-18T01:45:22.590Z,18.30
2018-08-18T01:47:54.962Z,18.30
2018-08-18T01:50:23.417Z,18.30
2018-08-18T01:52:51.853Z,18.30
2018-08-18T01:55:23.583Z,18.20
2018-08-18T01:57:56.141Z,18.20
2018-08-18T02:00:29.842Z,18.10
2018-08-18T02:02:58.342Z,18.10
2018-08-18T02:05:26.857Z,18.20
2018-08-18T02:07:58.463Z,18.10
2018-08-18T02:10:26.937Z,18.10
2018-08-18T02:13:04.786Z,18.10
2018-08-18T02:15:33.338Z,18.10
2018-08-18T02:18:01.899Z,18.10
2018-08-18T02:20:33.405Z,18.10
2018-08-18T02:23:01.899Z,18.00
2018-08-18T02:25:30.391Z,18.00
2018-08-18T02:28:02.028Z,18.00
2018-08-18T02:30:30.536Z,17.90
2018-08-18T02:32:59.011Z,17.80
2018-08-18T02:35:30.565Z,17.90
2018-08-18T02:37:59.095Z,17.80
2018-08-18T02:40:31.534Z,17.70
2018-08-18T02:43:00.085Z,17.70
2018-08-18T02:45:28.564Z,17.60
2018-08-18T02:48:13.663Z,17.60
2018-08-18T02:50:48.500Z,17.60
2018-08-18T02:53:28.140Z,17.60
2018-08-18T02:55:57.188Z,17.60
2018-08-18T02:58:32.683Z,17.50
2018-08-18T03:01:01.187Z,17.50
2018-08-18T03:03:33.533Z,17.40
2018-08-18T03:06:06.227Z,17.40
2018-08-18T03:08:38.920Z,17.40
2018-08-18T03:11:07.456Z,17.40
2018-08-18T03:13:35.934Z,17.30
2018-08-18T03:16:10.259Z,17.20
2018-08-18T03:18:54.346Z,17.20
2018-08-18T03:21:32.014Z,17.20
2018-08-18T03:24:15.114Z,17.20
2018-08-18T03:26:50.938Z,17.10
2018-08-18T03:29:20.271Z,17.10
2018-08-18T03:31:51.842Z,17.00
2018-08-18T03:34:20.517Z,17.00
2018-08-18T03:36:54.567Z,16.90
2018-08-18T03:39:28.840Z,16.80
2018-08-18T03:42:02.668Z,16.80
2018-08-18T03:44:31.226Z,16.80
2018-08-18T03:46:59.732Z,16.80
2018-08-18T03:49:32.281Z,16.80
2018-08-18T03:52:00.731Z,16.80
2018-08-18T03:54:33.104Z,16.80
2018-08-18T03:57:01.601Z,16.80
2018-08-18T03:59:37.650Z,16.80
2018-08-18T04:02:06.246Z,16.80
2018-08-18T04:04:40.234Z,16.80
2018-08-18T04:07:09.288Z,16.80
2018-08-18T04:09:42.060Z,16.80
2018-08-18T04:12:11.289Z,16.80
2018-08-18T04:14:47.491Z,16.80
2018-08-18T04:17:27.355Z,16.80
2018-08-18T04:20:00.125Z,16.80
2018-08-18T04:22:28.578Z,16.80
2018-08-18T04:25:01.011Z,16.80
2018-08-18T04:27:37.087Z,16.80
2018-08-18T04:30:10.924Z,16.80
2018-08-18T04:32:50.052Z,16.90
2018-08-18T04:35:23.668Z,17.00
2018-08-18T04:37:53.152Z,17.10
2018-08-18T04:40:26.299Z,17.10
2018-08-18T04:42:57.335Z,17.20
2018-08-18T04:45:28.986Z,17.10
2018-08-18T04:47:57.459Z,17.10
2018-08-18T04:50:25.984Z,17.10
2018-08-18T04:52:58.480Z,17.10
2018-08-18T04:55:26.934Z,17.00
2018-08-18T04:57:55.423Z,17.10
2018-08-18T05:00:31.701Z,17.10
2018-08-18T05:03:00.417Z,17.00
2018-08-18T05:05:34.297Z,17.00
2018-08-18T05:08:02.797Z,17.10
2018-08-18T05:10:35.237Z,17.10
2018-08-18T05:13:03.736Z,17.10
2018-08-18T05:15:36.132Z,17.10
2018-08-18T05:18:04.654Z,17.10
2018-08-18T05:20:33.152Z,17.00
2018-08-18T05:23:20.997Z,17.10
2018-08-18T05:25:53.561Z,17.10
2018-08-18T05:28:25.537Z,17.10
2018-08-18T05:30:54.589Z,17.20
2018-08-18T05:33:27.332Z,17.20
2018-08-18T05:35:55.812Z,17.20
2018-08-18T05:38:28.172Z,17.30
2018-08-18T05:40:56.664Z,17.40
2018-08-18T05:43:32.750Z,17.40
2018-08-18T05:46:10.807Z,17.50
2018-08-18T05:48:39.363Z,17.60
2018-08-18T05:51:12.211Z,17.70
2018-08-18T05:53:40.684Z,17.80
2018-08-18T05:56:09.317Z,17.90
2018-08-18T05:58:54.314Z,17.90
2018-08-18T06:01:33.181Z,17.90
2018-08-18T06:04:10.674Z,18.00
2018-08-18T06:06:39.210Z,18.10
2018-08-18T06:09:14.196Z,18.20
2018-08-18T06:11:42.883Z,18.30
2018-08-18T06:14:15.968Z,18.40
2018-08-18T06:16:44.924Z,18.60
2018-08-18T06:19:20.879Z,18.70
2018-08-18T06:21:49.419Z,18.80
2018-08-18T06:24:22.305Z,18.80
2018-08-18T06:26:50.785Z,18.80
2018-08-18T06:29:24.078Z,18.80
2018-08-18T06:32:01.105Z,18.90
2018-08-18T06:34:35.104Z,19.00
2018-08-18T06:37:03.635Z,19.20
2018-08-18T06:39:53.125Z,19.40
2018-08-18T06:42:29.825Z,19.50
2018-08-18T06:45:02.169Z,19.60
2018-08-18T06:47:31.034Z,19.60
2018-08-18T06:50:03.030Z,19.70
2018-08-18T06:52:31.511Z,19.90
2018-08-18T06:55:00.176Z,20.00
2018-08-18T06:57:46.105Z,20.20
2018-08-18T07:00:19.158Z,20.20
2018-08-18T07:02:55.155Z,20.30
2018-08-18T07:05:23.730Z,20.50
2018-08-18T07:07:52.204Z,20.70
2018-08-18T07:10:37.379Z,20.90
2018-08-18T07:13:10.248Z,21.00
2018-08-18T07:15:48.367Z,21.10
2018-08-18T07:18:16.900Z,20.90
2018-08-18T07:20:49.144Z,21.10
2018-08-18T07:23:18.222Z,21.10
2018-08-18T07:25:56.557Z,21.00
2018-08-18T07:28:25.294Z,21.10
2018-08-18T07:30:58.096Z,21.40
2018-08-18T07:33:26.832Z,21.20
2018-08-18T07:35:58.981Z,21.40
2018-08-18T07:38:27.563Z,21.40
2018-08-18T07:40:59.952Z,21.40
2018-08-18T07:43:30.018Z,21.50
2018-08-18T07:46:11.678Z,21.60
2018-08-18T07:48:40.205Z,21.50
2018-08-18T07:51:13.577Z,21.20
2018-08-18T07:53:42.233Z,21.50
2018-08-18T07:56:15.218Z,21.70
2018-08-18T07:58:43.817Z,21.70
2018-08-18T08:01:12.328Z,21.40
2018-08-18T08:03:48.333Z,21.50
2018-08-18T08:06:16.874Z,21.60
2018-08-18T08:08:51.955Z,21.70
2018-08-18T08:11:20.501Z,22.20
2018-08-18T08:13:49.094Z,22.40
2018-08-18T08:16:21.447Z,23.00
2018-08-18T08:18:50.027Z,23.40
2018-08-18T08:21:23.194Z,23.10
2018-08-18T08:23:51.842Z,23.10
2018-08-18T08:26:24.067Z,22.70
2018-08-18T08:28:52.630Z,22.80
2018-08-18T08:31:25.042Z,23.00
2018-08-18T08:33:54.164Z,23.00
2018-08-18T08:36:25.826Z,23.00
2018-08-18T08:38:58.340Z,22.80
2018-08-18T08:41:32.163Z,22.90
2018-08-18T08:44:01.067Z,23.00
2018-08-18T08:46:33.116Z,23.10
2018-08-18T08:49:02.834Z,23.20
2018-08-18T08:51:34.900Z,23.20
2018-08-18T08:54:04.079Z,23.00
2018-08-18T08:56:41.145Z,23.10
2018-08-18T08:59:09.723Z,23.20
2018-08-18T09:01:42.074Z,23.40
2018-08-18T09:04:14.739Z,23.40
2018-08-18T09:06:52.024Z,23.60
2018-08-18T09:09:20.857Z,23.70
2018-08-18T09:11:52.891Z,24.10
2018-08-18T09:14:21.798Z,24.40
2018-08-18T09:16:53.741Z,24.50
2018-08-18T09:19:22.500Z,24.70
2018-08-18T09:21:55.514Z,25.10
2018-08-18T09:24:26.645Z,25.40
2018-08-18T09:27:00.071Z,25.30
2018-08-18T09:29:32.789Z,25.00
2018-08-18T09:32:05.457Z,24.90
2018-08-18T09:34:39.356Z,25.00
2018-08-18T09:37:10.814Z,25.00
2018-08-18T09:39:39.323Z,25.00
2018-08-18T09:42:12.927Z,25.00
2018-08-18T09:44:45.210Z,25.00
2018-08-18T09:47:20.794Z,25.10
2018-08-18T09:49:49.307Z,25.20
2018-08-18T09:52:23.427Z,25.30
2018-08-18T09:54:52.048Z,25.30
2018-08-18T09:57:24.290Z,25.20
2018-08-18T09:59:52.763Z,25.40
2018-08-18T10:02:25.295Z,24.60
2018-08-18T10:04:57.067Z,24.60
2018-08-18T10:07:28.770Z,24.70
2018-08-18T10:09:57.248Z,24.80
2018-08-18T10:12:25.788Z,25.20
2018-08-18T10:14:58.328Z,25.40
2018-08-18T10:17:26.819Z,25.40
2018-08-18T10:20:02.852Z,25.40
2018-08-18T10:22:31.445Z,25.70
2018-08-18T10:25:03.740Z,26.30
2018-08-18T10:27:32.317Z,27.40
2018-08-18T10:30:00.833Z,27.50
2018-08-18T10:32:34.172Z,27.40
2018-08-18T10:35:05.152Z,27.10
2018-08-18T10:37:36.902Z,27.50
2018-08-18T10:40:10.391Z,27.80
2018-08-18T10:42:42.264Z,27.70
2018-08-18T10:45:10.830Z,27.50
2018-08-18T10:47:39.311Z,27.40
2018-08-18T10:51:25.220Z,27.60
2018-08-18T10:53:54.364Z,27.20
2018-08-18T10:56:26.980Z,27.30
2018-08-18T10:59:10.979Z,27.90
2018-08-18T11:02:23.179Z,28.30
2018-08-18T11:05:01.748Z,29.20
2018-08-18T11:07:33.998Z,29.30
2018-08-18T11:10:02.584Z,29.10
2018-08-18T11:12:38.479Z,29.50
2018-08-18T11:15:10.879Z,29.60
2018-08-18T11:17:46.967Z,29.50
2018-08-18T11:20:15.797Z,29.40
2018-08-18T11:23:04.675Z,29.70
2018-08-18T11:25:37.409Z,29.80
2018-08-18T11:28:10.148Z,30.20
2018-08-18T11:30:38.739Z,30.20
2018-08-18T11:33:11.288Z,30.10
2018-08-18T11:35:39.834Z,30.20
2018-08-18T11:38:18.311Z,30.50
2018-08-18T11:40:46.829Z,30.90
2018-08-18T11:43:20.097Z,31.10
2018-08-18T11:45:48.652Z,31.10
2018-08-18T11:48:21.866Z,31.00
2018-08-18T11:50:51.329Z,31.30
2018-08-18T11:53:23.645Z,30.80
2018-08-18T11:55:52.252Z,31.00
2018-08-18T11:58:26.249Z,31.20
2018-08-18T12:00:57.826Z,31.90
2018-08-18T12:03:33.473Z,32.10
2018-08-18T12:06:05.641Z,32.40
2018-08-18T12:08:38.860Z,31.60
2018-08-18T12:11:08.494Z,31.60
2018-08-18T12:13:48.004Z,30.60
2018-08-18T12:16:17.848Z,30.50
2018-08-18T12:18:51.597Z,30.80
2018-08-18T12:21:20.096Z,31.20
2018-08-18T12:23:53.304Z,30.60
2018-08-18T12:26:23.070Z,30.90
2018-08-18T12:28:56.988Z,30.90
2018-08-18T12:31:26.776Z,31.30
2018-08-18T12:33:59.855Z,31.60
2018-08-18T12:36:28.456Z,31.50
2018-08-18T12:39:02.308Z,31.80
2018-08-18T12:41:30.792Z,32.10
2018-08-18T12:43:59.355Z,32.30
2018-08-18T12:46:39.159Z,32.80
2018-08-18T12:49:07.696Z,33.40
2018-08-18T12:51:36.635Z,33.00
2018-08-18T12:54:09.487Z,32.90
2018-08-18T12:56:38.032Z,33.10
2018-08-18T12:59:11.229Z,32.60
2018-08-18T13:01:43.210Z,33.00
2018-08-18T13:04:17.604Z,32.50
2018-08-18T13:06:51.644Z,32.00
2018-08-18T13:09:28.448Z,32.30
2018-08-18T13:11:58.294Z,31.60
2018-08-18T13:14:32.074Z,30.80
2018-08-18T13:17:00.611Z,30.90
2018-08-18T13:19:35.665Z,31.60
2018-08-18T13:22:04.504Z,31.90
2018-08-18T13:24:37.482Z,31.70
2018-08-18T13:27:05.966Z,32.20
2018-08-18T13:29:34.391Z,32.50
2018-08-18T13:32:06.004Z,32.50
2018-08-18T13:34:34.490Z,32.30
2018-08-18T13:37:06.957Z,32.80
2018-08-18T13:39:35.464Z,33.40
2018-08-18T13:42:22.241Z,31.80
2018-08-18T13:44:52.328Z,31.80
2018-08-18T13:47:24.111Z,31.50
2018-08-18T13:49:58.237Z,31.80
2018-08-18T13:52:33.093Z,31.70
2018-08-18T13:55:01.891Z,31.40
2018-08-18T13:57:37.615Z,31.10
2018-08-18T14:00:10.420Z,31.20
2018-08-18T14:02:42.073Z,31.10
2018-08-18T14:05:15.850Z,31.80
2018-08-18T14:08:02.359Z,32.10
2018-08-18T14:10:30.869Z,31.60
2018-08-18T14:13:07.388Z,31.10
2018-08-18T14:15:35.917Z,31.10
2018-08-18T14:18:15.499Z,30.80
2018-08-18T14:20:58.514Z,30.50
2018-08-18T14:23:30.881Z,30.50
2018-08-18T14:25:59.314Z,30.50
2018-08-18T14:28:27.859Z,30.30
2018-08-18T14:31:00.415Z,30.50
2018-08-18T14:33:28.861Z,30.40
2018-08-18T14:36:10.558Z,30.20
2018-08-18T14:38:39.091Z,29.60
2018-08-18T14:41:11.214Z,29.30
2018-08-18T14:43:41.943Z,29.20
2018-08-18T14:46:19.411Z,29.60
2018-08-18T14:48:47.879Z,29.50
2018-08-18T14:51:16.442Z,29.60
2018-08-18T14:53:48.084Z,29.70
2018-08-18T14:56:16.596Z,29.60
2018-08-18T14:58:45.153Z,29.50
2018-08-18T15:01:18.401Z,29.60
2018-08-18T15:03:46.860Z,29.50
2018-08-18T15:06:19.383Z,29.50
2018-08-18T15:08:51.093Z,29.30
2018-08-18T15:11:22.926Z,29.30
2018-08-18T15:13:51.457Z,29.30
2018-08-18T15:16:19.976Z,28.90
2018-08-18T15:18:52.376Z,28.50
2018-08-18T15:21:20.850Z,28.60
2018-08-18T15:23:49.319Z,28.30
2018-08-18T15:26:20.989Z,28.40
2018-08-18T15:28:49.444Z,28.40
2018-08-18T15:31:17.986Z,28.10
2018-08-18T15:33:50.535Z,28.20
2018-08-18T15:36:38.120Z,28.20
2018-08-18T15:39:10.462Z,28.20
2018-08-18T15:41:38.952Z,28.20
2018-08-18T15:44:13.123Z,28.20
2018-08-18T15:46:41.604Z,27.80
2018-08-18T15:49:14.871Z,27.80
2018-08-18T15:51:43.348Z,27.50
2018-08-18T15:54:11.829Z,27.30
2018-08-18T15:56:44.472Z,27.30
2018-08-18T15:59:13.606Z,27.30
2018-08-18T16:01:45.341Z,27.30
2018-08-18T16:04:13.835Z,27.20
2018-08-18T16:06:46.122Z,27.00
2018-08-18T16:09:18.780Z,26.70
2018-08-18T16:11:51.551Z,26.60
2018-08-18T16:14:20.002Z,26.70
2018-08-18T16:17:04.216Z,26.60
2018-08-18T16:19:33.877Z,26.70
2018-08-18T16:22:06.071Z,26.70
2018-08-18T16:24:44.487Z,26.60
2018-08-18T16:27:16.042Z,26.50
2018-08-18T16:29:44.532Z,26.40
2018-08-18T16:32:24.991Z,26.30
2018-08-18T16:37:49.522Z,26.00
2018-08-18T16:40:18.069Z,26.10
2018-08-18T16:42:50.339Z,26.10
2018-08-18T16:45:18.840Z,26.00
2018-08-18T16:47:55.811Z,26.00
2018-08-18T16:50:24.343Z,25.90
2018-08-18T16:52:56.664Z,25.80
2018-08-18T16:55:25.192Z,25.70
2018-08-18T16:57:57.533Z,25.70
2018-08-18T17:00:25.988Z,25.70
2018-08-18T17:02:58.479Z,25.60
2018-08-18T17:05:26.977Z,25.60
2018-08-18T17:07:55.536Z,25.40
2018-08-18T17:10:31.719Z,25.40
2018-08-18T17:13:00.199Z,25.20
2018-08-18T17:15:32.537Z,25.20
2018-08-18T17:18:01.110Z,25.10
2018-08-18T17:20:29.632Z,25.00
2018-08-18T17:23:01.022Z,24.90
2018-08-18T17:25:34.074Z,24.90
2018-08-18T17:28:06.509Z,24.80
2018-08-18T17:30:35.026Z,24.70
2018-08-18T17:33:07.315Z,24.60
2018-08-18T17:35:35.785Z,24.50
2018-08-18T17:38:08.348Z,24.40
2018-08-18T17:40:36.931Z,24.40
2018-08-18T17:43:09.184Z,24.40
2018-08-18T17:45:45.985Z,24.20
2018-08-18T17:48:22.443Z,24.00
2018-08-18T17:50:51.382Z,23.90
2018-08-18T17:53:24.506Z,23.70
2018-08-18T17:56:03.026Z,23.60
2018-08-18T17:58:35.379Z,23.50
2018-08-18T18:01:06.088Z,23.50
2018-08-18T18:03:40.284Z,23.40
2018-08-18T18:06:10.464Z,23.20
2018-08-18T18:08:46.147Z,23.00
2018-08-18T18:11:19.433Z,22.80
2018-08-18T18:13:52.518Z,22.70
2018-08-18T18:16:26.943Z,22.60
2018-08-18T18:19:01.466Z,22.50
2018-08-18T18:21:29.988Z,22.40
2018-08-18T18:23:58.531Z,22.30
2018-08-18T18:26:30.978Z,22.30
2018-08-18T18:28:59.812Z,22.00
2018-08-18T18:31:32.802Z,22.00
2018-08-18T18:34:02.896Z,21.70
2018-08-18T18:36:36.352Z,21.70
2018-08-18T18:39:05.119Z,21.50
2018-08-18T18:41:37.273Z,21.60
2018-08-18T18:44:06.452Z,21.50
2018-08-18T18:46:38.137Z,21.30
2018-08-18T18:49:22.410Z,21.20
2018-08-18T18:51:54.457Z,21.10
2018-08-18T18:54:23.237Z,21.00
2018-08-18T18:57:00.430Z,20.80
2018-08-18T18:59:29.749Z,20.70
2018-08-18T19:02:06.017Z,20.60
2018-08-18T19:04:34.535Z,20.50
2018-08-18T19:07:09.816Z,20.50
2018-08-18T19:09:38.762Z,20.40
2018-08-18T19:12:18.968Z,20.20
2018-08-18T19:14:48.358Z,20.10
2018-08-18T19:17:21.546Z,20.10
2018-08-18T19:19:52.545Z,20.00
2018-08-18T19:22:24.407Z,19.90
2018-08-18T19:24:53.648Z,19.80
2018-08-18T19:27:25.187Z,19.80
2018-08-18T19:29:53.876Z,19.70
2018-08-18T19:32:29.741Z,19.60
2018-08-18T19:34:58.756Z,19.50
2018-08-18T19:37:30.602Z,19.50
2018-08-18T19:39:59.418Z,19.40
2018-08-18T19:42:31.529Z,19.30
2018-08-18T19:45:00.854Z,19.30
2018-08-18T19:47:42.231Z,19.30
2018-08-18T19:50:11.412Z,19.20
2018-08-18T19:52:48.647Z,19.10
2018-08-18T19:55:17.723Z,19.00
2018-08-18T19:57:49.871Z,19.00
2018-08-18T20:00:20.480Z,18.90
2018-08-18T20:02:57.569Z,18.80
2018-08-18T20:05:26.262Z,18.70
2018-08-18T20:07:59.413Z,18.70
2018-08-18T20:10:28.537Z,18.60
2018-08-18T20:13:04.843Z,18.60
2018-08-18T20:15:33.630Z,18.50
2018-08-18T20:18:06.556Z,18.40
2018-08-18T20:20:35.364Z,18.30
2018-08-18T20:23:08.286Z,18.30
2018-08-18T20:25:37.034Z,18.20
2018-08-18T20:28:09.295Z,18.20
2018-08-18T20:30:38.752Z,18.10
2018-08-18T20:33:11.951Z,18.00
2018-08-18T20:35:40.724Z,17.90
2018-08-18T20:38:13.615Z,17.90
2018-08-18T20:40:42.278Z,17.90
2018-08-18T20:43:10.879Z,17.80
2018-08-18T20:45:48.578Z,17.80
2018-08-18T20:48:20.528Z,17.80
2018-08-18T20:50:58.018Z,17.70
2018-08-18T20:53:28.336Z,17.70
2018-08-18T20:56:02.151Z,17.60
2018-08-18T20:58:34.054Z,17.50
2018-08-18T21:01:08.191Z,17.50
2018-08-18T21:03:48.330Z,17.40
2018-08-18T21:06:21.131Z,17.40
2018-08-18T21:08:50.064Z,17.40
2018-08-18T21:11:22.913Z,17.40
2018-08-18T21:13:55.642Z,17.30
2018-08-18T21:16:27.456Z,17.30
2018-08-18T21:18:56.232Z,17.20
2018-08-18T21:21:32.835Z,17.20
2018-08-18T21:24:01.413Z,17.10
2018-08-18T21:26:34.720Z,17.10
2018-08-18T21:29:03.748Z,17.00
2018-08-18T21:31:37.331Z,17.00
2018-08-18T21:34:07.068Z,16.90
2018-08-18T21:36:39.040Z,16.80
2018-08-18T21:39:09.365Z,16.80
2018-08-18T21:41:43.623Z,16.80
2018-08-18T21:44:13.585Z,16.80
2018-08-18T21:47:08.959Z,16.70
2018-08-18T21:50:00.995Z,16.70
2018-08-18T21:52:56.148Z,16.70
2018-08-18T21:55:46.838Z,16.60
2018-08-18T21:58:42.252Z,16.60
2018-08-18T22:01:34.067Z,16.50
2018-08-18T22:04:28.454Z,16.40
2018-08-18T22:07:19.607Z,16.40
2018-08-18T22:10:14.670Z,16.40
2018-08-18T22:13:06.346Z,16.30
2018-08-18T22:16:00.888Z,16.20
2018-08-18T22:19:03.486Z,16.20
2018-08-18T22:21:58.801Z,16.20
2018-08-18T22:24:50.271Z,16.10
2018-08-18T22:27:46.809Z,16.10
2018-08-18T22:30:41.230Z,16.10
2018-08-18T22:33:40.224Z,16.00
2018-08-18T22:36:34.795Z,15.90
2018-08-18T22:39:29.175Z,15.90
2018-08-18T22:42:20.741Z,15.90
2018-08-18T22:45:21.662Z,15.80
2018-08-18T22:48:13.585Z,15.80
2018-08-18T22:51:08.800Z,15.70
2018-08-18T22:54:00.321Z,15.70
2018-08-18T22:57:00.954Z,15.60
2018-08-18T22:59:52.253Z,15.60
2018-08-18T23:02:47.548Z,15.50
2018-08-18T23:05:38.454Z,15.50
2018-08-18T23:08:33.701Z,15.50
2018-08-18T23:11:25.357Z,15.40
2018-08-18T23:14:20.846Z,15.40
2018-08-18T23:17:12.426Z,15.30
2018-08-18T23:20:07.965Z,15.30
2018-08-18T23:23:05.256Z,15.30
2018-08-18T23:25:59.582Z,15.30
2018-08-18T23:28:51.259Z,15.20
2018-08-18T23:31:46.692Z,15.20
2018-08-18T23:34:38.380Z,15.10
2018-08-18T23:37:33.806Z,15.10
2018-08-18T23:40:24.528Z,15.10
2018-08-18T23:46:07.919Z,15.00
2018-08-18T23:49:02.538Z,15.00
2018-08-18T23:51:53.673Z,14.90
2018-08-18T23:54:49.652Z,14.80
2018-08-18T23:57:40.294Z,14.80
